sensor_id;sensor_type;location;lat;lon;timestamp;P1;durP1;ratioP1;P2;durP2;ratioP2
6195;SDS011;3131;42.630;23.382;2022-07-23T00:01:54;14.67;;;4.97;;
6195;SDS011;3131;42.630;23.382;2022-07-23T00:04:22;7.17;;;4.63;;
6195;SDS011;3131;42.630;23.382;2022-07-23T00:06:49;6.27;;;4.67;;
6195;SDS011;3131;42.630;23.382;2022-07-23T00:09:17;9.57;;;4.63;;
6195;SDS011;3131;42.630;23.382;2022-07-23T00:11:44;12.53;;;5.47;;
6195;SDS011;3131;42.630;23.382;2022-07-23T00:14:12;12.60;;;5.30;;
6195;SDS011;3131;42.630;23.382;2022-07-23T00:16:39;8.17;;;4.60;;
6195;SDS011;3131;42.630;23.382;2022-07-23T00:19:07;5.47;;;4.10;;
6195;SDS011;3131;42.630;23.382;2022-07-23T00:21:34;11.93;;;4.63;;
6195;SDS011;3131;42.630;23.382;2022-07-23T00:24:02;6.63;;;4.97;;
6195;SDS011;3131;42.630;23.382;2022-07-23T00:26:29;8.93;;;4.47;;
6195;SDS011;3131;42.630;23.382;2022-07-23T00:28:57;9.03;;;5.50;;
6195;SDS011;3131;42.630;23.382;2022-07-23T00:31:24;6.50;;;4.57;;
6195;SDS011;3131;42.630;23.382;2022-07-23T00:33:53;20.57;;;6.47;;
6195;SDS011;3131;42.630;23.382;2022-07-23T00:36:23;9.30;;;4.90;;
6195;SDS011;3131;42.630;23.382;2022-07-23T00:38:50;8.47;;;5.30;;
6195;SDS011;3131;42.630;23.382;2022-07-23T00:41:17;8.63;;;5.63;;
6195;SDS011;3131;42.630;23.382;2022-07-23T00:43:45;7.00;;;5.43;;
6195;SDS011;3131;42.630;23.382;2022-07-23T00:46:13;11.77;;;5.07;;
6195;SDS011;3131;42.630;23.382;2022-07-23T00:48:40;7.70;;;5.10;;
6195;SDS011;3131;42.630;23.382;2022-07-23T00:51:08;7.43;;;5.37;;
6195;SDS011;3131;42.630;23.382;2022-07-23T00:53:35;10.87;;;5.17;;
6195;SDS011;3131;42.630;23.382;2022-07-23T00:56:03;10.40;;;5.47;;
6195;SDS011;3131;42.630;23.382;2022-07-23T00:58:30;8.40;;;4.83;;
6195;SDS011;3131;42.630;23.382;2022-07-23T01:00:58;12.20;;;5.60;;
6195;SDS011;3131;42.630;23.382;2022-07-23T01:03:26;7.97;;;5.17;;
6195;SDS011;3131;42.630;23.382;2022-07-23T01:05:53;7.30;;;4.53;;
6195;SDS011;3131;42.630;23.382;2022-07-23T01:08:21;5.83;;;4.67;;
6195;SDS011;3131;42.630;23.382;2022-07-23T01:10:48;8.00;;;4.87;;
6195;SDS011;3131;42.630;23.382;2022-07-23T01:13:17;7.07;;;5.03;;
6195;SDS011;3131;42.630;23.382;2022-07-23T01:15:44;12.40;;;5.70;;
6195;SDS011;3131;42.630;23.382;2022-07-23T01:18:12;8.77;;;5.63;;
6195;SDS011;3131;42.630;23.382;2022-07-23T01:20:40;6.50;;;5.17;;
6195;SDS011;3131;42.630;23.382;2022-07-23T01:23:07;10.90;;;5.40;;
6195;SDS011;3131;42.630;23.382;2022-07-23T01:25:35;8.30;;;4.83;;
6195;SDS011;3131;42.630;23.382;2022-07-23T01:28:03;14.53;;;5.20;;
6195;SDS011;3131;42.630;23.382;2022-07-23T01:30:30;9.63;;;5.77;;
6195;SDS011;3131;42.630;23.382;2022-07-23T01:32:58;11.57;;;5.47;;
6195;SDS011;3131;42.630;23.382;2022-07-23T01:35:25;10.47;;;5.17;;
6195;SDS011;3131;42.630;23.382;2022-07-23T01:37:53;7.93;;;5.03;;
6195;SDS011;3131;42.630;23.382;2022-07-23T01:40:21;8.17;;;4.73;;
6195;SDS011;3131;42.630;23.382;2022-07-23T01:42:48;6.37;;;5.37;;
6195;SDS011;3131;42.630;23.382;2022-07-23T01:45:15;8.53;;;5.20;;
6195;SDS011;3131;42.630;23.382;2022-07-23T01:47:43;8.23;;;5.57;;
6195;SDS011;3131;42.630;23.382;2022-07-23T01:50:11;7.03;;;5.57;;
6195;SDS011;3131;42.630;23.382;2022-07-23T01:52:39;7.87;;;5.37;;
6195;SDS011;3131;42.630;23.382;2022-07-23T01:55:08;9.83;;;5.10;;
6195;SDS011;3131;42.630;23.382;2022-07-23T01:57:36;7.77;;;5.07;;
6195;SDS011;3131;42.630;23.382;2022-07-23T02:00:04;9.23;;;5.17;;
6195;SDS011;3131;42.630;23.382;2022-07-23T02:02:31;8.27;;;5.00;;
6195;SDS011;3131;42.630;23.382;2022-07-23T02:04:59;10.77;;;5.63;;
6195;SDS011;3131;42.630;23.382;2022-07-23T02:07:27;10.20;;;5.30;;
6195;SDS011;3131;42.630;23.382;2022-07-23T02:09:55;6.67;;;4.17;;
6195;SDS011;3131;42.630;23.382;2022-07-23T02:12:22;9.40;;;4.90;;
6195;SDS011;3131;42.630;23.382;2022-07-23T02:14:50;11.30;;;5.47;;
6195;SDS011;3131;42.630;23.382;2022-07-23T02:17:18;6.67;;;5.23;;
6195;SDS011;3131;42.630;23.382;2022-07-23T02:19:45;7.00;;;4.67;;
6195;SDS011;3131;42.630;23.382;2022-07-23T02:22:13;7.87;;;4.70;;
6195;SDS011;3131;42.630;23.382;2022-07-23T02:24:40;8.17;;;5.27;;
6195;SDS011;3131;42.630;23.382;2022-07-23T02:27:08;6.70;;;4.57;;
6195;SDS011;3131;42.630;23.382;2022-07-23T02:29:35;8.10;;;4.70;;
6195;SDS011;3131;42.630;23.382;2022-07-23T02:32:03;7.33;;;4.33;;
6195;SDS011;3131;42.630;23.382;2022-07-23T02:34:31;9.37;;;5.03;;
6195;SDS011;3131;42.630;23.382;2022-07-23T02:36:58;9.67;;;5.17;;
6195;SDS011;3131;42.630;23.382;2022-07-23T02:39:27;9.27;;;4.87;;
6195;SDS011;3131;42.630;23.382;2022-07-23T02:41:54;9.63;;;5.17;;
6195;SDS011;3131;42.630;23.382;2022-07-23T02:44:22;9.03;;;5.17;;
6195;SDS011;3131;42.630;23.382;2022-07-23T02:46:50;8.30;;;4.97;;
6195;SDS011;3131;42.630;23.382;2022-07-23T02:49:17;7.20;;;5.20;;
6195;SDS011;3131;42.630;23.382;2022-07-23T02:51:45;10.03;;;5.00;;
6195;SDS011;3131;42.630;23.382;2022-07-23T02:54:13;7.53;;;4.77;;
6195;SDS011;3131;42.630;23.382;2022-07-23T02:56:40;11.67;;;5.37;;
6195;SDS011;3131;42.630;23.382;2022-07-23T02:59:08;11.77;;;5.00;;
6195;SDS011;3131;42.630;23.382;2022-07-23T03:01:35;7.27;;;5.27;;
6195;SDS011;3131;42.630;23.382;2022-07-23T03:04:03;6.93;;;4.37;;
6195;SDS011;3131;42.630;23.382;2022-07-23T03:06:31;8.50;;;5.57;;
6195;SDS011;3131;42.630;23.382;2022-07-23T03:08:58;7.83;;;5.90;;
6195;SDS011;3131;42.630;23.382;2022-07-23T03:11:26;9.20;;;5.80;;
6195;SDS011;3131;42.630;23.382;2022-07-23T03:13:53;11.17;;;5.73;;
6195;SDS011;3131;42.630;23.382;2022-07-23T03:16:21;8.53;;;4.90;;
6195;SDS011;3131;42.630;23.382;2022-07-23T03:18:49;7.80;;;5.70;;
6195;SDS011;3131;42.630;23.382;2022-07-23T03:21:16;9.40;;;5.23;;
6195;SDS011;3131;42.630;23.382;2022-07-23T03:23:44;8.60;;;5.90;;
6195;SDS011;3131;42.630;23.382;2022-07-23T03:26:11;7.87;;;5.70;;
6195;SDS011;3131;42.630;23.382;2022-07-23T03:28:39;8.40;;;5.73;;
6195;SDS011;3131;42.630;23.382;2022-07-23T03:31:06;10.37;;;5.57;;
6195;SDS011;3131;42.630;23.382;2022-07-23T03:33:34;14.33;;;5.70;;
6195;SDS011;3131;42.630;23.382;2022-07-23T03:36:01;8.87;;;6.27;;
6195;SDS011;3131;42.630;23.382;2022-07-23T03:38:29;10.80;;;6.20;;
6195;SDS011;3131;42.630;23.382;2022-07-23T03:46:23;9.53;;;5.70;;
6195;SDS011;3131;42.630;23.382;2022-07-23T03:59:22;10.80;;;6.00;;
6195;SDS011;3131;42.630;23.382;2022-07-23T04:01:50;9.97;;;5.13;;
6195;SDS011;3131;42.630;23.382;2022-07-23T04:04:17;12.67;;;6.07;;
6195;SDS011;3131;42.630;23.382;2022-07-23T04:06:45;9.87;;;5.70;;
6195;SDS011;3131;42.630;23.382;2022-07-23T04:09:12;9.47;;;6.13;;
6195;SDS011;3131;42.630;23.382;2022-07-23T04:11:40;9.43;;;6.93;;
6195;SDS011;3131;42.630;23.382;2022-07-23T04:14:07;14.53;;;6.30;;
6195;SDS011;3131;42.630;23.382;2022-07-23T04:16:35;15.93;;;7.87;;
6195;SDS011;3131;42.630;23.382;2022-07-23T04:19:02;11.47;;;6.43;;
6195;SDS011;3131;42.630;23.382;2022-07-23T04:21:30;14.57;;;6.67;;
6195;SDS011;3131;42.630;23.382;2022-07-23T04:23:58;13.40;;;6.67;;
6195;SDS011;3131;42.630;23.382;2022-07-23T04:26:25;11.90;;;6.60;;
6195;SDS011;3131;42.630;23.382;2022-07-23T04:28:53;15.60;;;5.97;;
6195;SDS011;3131;42.630;23.382;2022-07-23T04:31:20;8.37;;;5.90;;
6195;SDS011;3131;42.630;23.382;2022-07-23T04:33:48;9.53;;;6.40;;
6195;SDS011;3131;42.630;23.382;2022-07-23T04:36:15;10.67;;;6.17;;
6195;SDS011;3131;42.630;23.382;2022-07-23T04:38:43;9.87;;;6.47;;
6195;SDS011;3131;42.630;23.382;2022-07-23T04:41:10;15.63;;;6.70;;
6195;SDS011;3131;42.630;23.382;2022-07-23T04:43:38;10.70;;;6.20;;
6195;SDS011;3131;42.630;23.382;2022-07-23T04:46:05;13.33;;;6.57;;
6195;SDS011;3131;42.630;23.382;2022-07-23T04:48:33;13.23;;;7.43;;
6195;SDS011;3131;42.630;23.382;2022-07-23T04:51:00;10.37;;;6.20;;
6195;SDS011;3131;42.630;23.382;2022-07-23T04:53:28;10.90;;;6.67;;
6195;SDS011;3131;42.630;23.382;2022-07-23T04:55:56;13.50;;;6.87;;
6195;SDS011;3131;42.630;23.382;2022-07-23T04:58:23;14.57;;;6.67;;
6195;SDS011;3131;42.630;23.382;2022-07-23T05:00:51;12.60;;;6.70;;
6195;SDS011;3131;42.630;23.382;2022-07-23T05:03:18;21.13;;;7.00;;
6195;SDS011;3131;42.630;23.382;2022-07-23T05:05:45;13.97;;;7.10;;
6195;SDS011;3131;42.630;23.382;2022-07-23T05:08:13;9.13;;;6.30;;
6195;SDS011;3131;42.630;23.382;2022-07-23T05:10:40;12.77;;;6.10;;
6195;SDS011;3131;42.630;23.382;2022-07-23T05:13:08;15.63;;;8.90;;
6195;SDS011;3131;42.630;23.382;2022-07-23T05:15:35;13.37;;;8.80;;
6195;SDS011;3131;42.630;23.382;2022-07-23T05:18:03;19.13;;;7.70;;
6195;SDS011;3131;42.630;23.382;2022-07-23T05:20:31;14.13;;;7.10;;
6195;SDS011;3131;42.630;23.382;2022-07-23T05:22:58;14.73;;;6.53;;
6195;SDS011;3131;42.630;23.382;2022-07-23T05:25:26;14.00;;;6.60;;
6195;SDS011;3131;42.630;23.382;2022-07-23T05:27:53;12.00;;;7.37;;
6195;SDS011;3131;42.630;23.382;2022-07-23T05:30:21;13.87;;;7.50;;
6195;SDS011;3131;42.630;23.382;2022-07-23T05:32:48;12.97;;;7.20;;
6195;SDS011;3131;42.630;23.382;2022-07-23T05:35:16;15.47;;;8.00;;
6195;SDS011;3131;42.630;23.382;2022-07-23T05:37:44;15.67;;;7.80;;
6195;SDS011;3131;42.630;23.382;2022-07-23T05:40:12;11.53;;;7.10;;
6195;SDS011;3131;42.630;23.382;2022-07-23T05:42:40;21.27;;;7.47;;
6195;SDS011;3131;42.630;23.382;2022-07-23T05:45:09;18.83;;;8.17;;
6195;SDS011;3131;42.630;23.382;2022-07-23T05:47:40;16.07;;;7.67;;
6195;SDS011;3131;42.630;23.382;2022-07-23T05:50:09;12.67;;;7.33;;
6195;SDS011;3131;42.630;23.382;2022-07-23T05:52:36;15.27;;;7.10;;
6195;SDS011;3131;42.630;23.382;2022-07-23T05:55:05;9.47;;;6.83;;
6195;SDS011;3131;42.630;23.382;2022-07-23T05:57:33;9.90;;;7.20;;
6195;SDS011;3131;42.630;23.382;2022-07-23T06:00:00;19.03;;;7.70;;
6195;SDS011;3131;42.630;23.382;2022-07-23T06:02:28;16.70;;;7.73;;
6195;SDS011;3131;42.630;23.382;2022-07-23T06:04:55;14.77;;;7.13;;
6195;SDS011;3131;42.630;23.382;2022-07-23T06:07:23;19.93;;;6.77;;
6195;SDS011;3131;42.630;23.382;2022-07-23T06:09:50;16.67;;;7.50;;
6195;SDS011;3131;42.630;23.382;2022-07-23T06:12:18;10.00;;;7.13;;
6195;SDS011;3131;42.630;23.382;2022-07-23T06:14:45;15.63;;;6.97;;
6195;SDS011;3131;42.630;23.382;2022-07-23T06:17:15;8.93;;;6.77;;
6195;SDS011;3131;42.630;23.382;2022-07-23T06:19:43;10.50;;;6.67;;
6195;SDS011;3131;42.630;23.382;2022-07-23T06:22:11;13.23;;;7.00;;
6195;SDS011;3131;42.630;23.382;2022-07-23T06:24:38;12.17;;;7.10;;
6195;SDS011;3131;42.630;23.382;2022-07-23T06:27:06;14.23;;;6.67;;
6195;SDS011;3131;42.630;23.382;2022-07-23T06:29:33;11.10;;;7.03;;
6195;SDS011;3131;42.630;23.382;2022-07-23T06:32:02;15.83;;;8.57;;
6195;SDS011;3131;42.630;23.382;2022-07-23T06:34:30;14.60;;;6.33;;
6195;SDS011;3131;42.630;23.382;2022-07-23T06:36:58;16.17;;;6.80;;
6195;SDS011;3131;42.630;23.382;2022-07-23T06:39:26;15.40;;;6.77;;
6195;SDS011;3131;42.630;23.382;2022-07-23T06:41:53;18.27;;;7.63;;
6195;SDS011;3131;42.630;23.382;2022-07-23T06:44:21;15.07;;;7.30;;
6195;SDS011;3131;42.630;23.382;2022-07-23T06:46:48;12.80;;;7.37;;
6195;SDS011;3131;42.630;23.382;2022-07-23T06:49:16;15.30;;;6.70;;
6195;SDS011;3131;42.630;23.382;2022-07-23T06:51:43;14.93;;;7.30;;
6195;SDS011;3131;42.630;23.382;2022-07-23T06:54:11;22.53;;;7.07;;
6195;SDS011;3131;42.630;23.382;2022-07-23T06:56:38;15.50;;;6.87;;
6195;SDS011;3131;42.630;23.382;2022-07-23T06:59:06;14.80;;;6.53;;
6195;SDS011;3131;42.630;23.382;2022-07-23T07:01:33;17.03;;;6.40;;
6195;SDS011;3131;42.630;23.382;2022-07-23T07:04:01;21.47;;;9.03;;
6195;SDS011;3131;42.630;23.382;2022-07-23T07:06:28;13.50;;;6.20;;
6195;SDS011;3131;42.630;23.382;2022-07-23T07:08:56;11.70;;;7.67;;
6195;SDS011;3131;42.630;23.382;2022-07-23T07:11:23;15.00;;;6.83;;
6195;SDS011;3131;42.630;23.382;2022-07-23T07:13:51;11.97;;;6.30;;
6195;SDS011;3131;42.630;23.382;2022-07-23T07:16:19;11.97;;;6.20;;
6195;SDS011;3131;42.630;23.382;2022-07-23T07:18:46;9.97;;;7.00;;
6195;SDS011;3131;42.630;23.382;2022-07-23T07:21:14;11.90;;;7.10;;
6195;SDS011;3131;42.630;23.382;2022-07-23T07:23:41;11.87;;;6.90;;
6195;SDS011;3131;42.630;23.382;2022-07-23T07:26:09;12.23;;;6.63;;
6195;SDS011;3131;42.630;23.382;2022-07-23T07:28:37;10.43;;;6.17;;
6195;SDS011;3131;42.630;23.382;2022-07-23T07:31:04;14.90;;;6.30;;
6195;SDS011;3131;42.630;23.382;2022-07-23T07:33:32;12.90;;;6.80;;
6195;SDS011;3131;42.630;23.382;2022-07-23T07:35:59;9.50;;;5.97;;
6195;SDS011;3131;42.630;23.382;2022-07-23T07:38:27;8.73;;;5.77;;
6195;SDS011;3131;42.630;23.382;2022-07-23T07:40:54;15.07;;;6.57;;
6195;SDS011;3131;42.630;23.382;2022-07-23T07:43:22;11.17;;;6.13;;
6195;SDS011;3131;42.630;23.382;2022-07-23T07:45:49;11.17;;;6.57;;
6195;SDS011;3131;42.630;23.382;2022-07-23T07:48:17;13.63;;;6.93;;
6195;SDS011;3131;42.630;23.382;2022-07-23T07:50:45;10.37;;;6.40;;
6195;SDS011;3131;42.630;23.382;2022-07-23T07:53:12;17.17;;;7.03;;
6195;SDS011;3131;42.630;23.382;2022-07-23T07:55:41;11.40;;;6.70;;
6195;SDS011;3131;42.630;23.382;2022-07-23T07:58:08;14.67;;;6.73;;
6195;SDS011;3131;42.630;23.382;2022-07-23T08:00:36;10.77;;;6.13;;
6195;SDS011;3131;42.630;23.382;2022-07-23T08:03:03;17.67;;;6.37;;
6195;SDS011;3131;42.630;23.382;2022-07-23T08:05:31;12.80;;;6.27;;
6195;SDS011;3131;42.630;23.382;2022-07-23T08:07:58;9.47;;;6.20;;
6195;SDS011;3131;42.630;23.382;2022-07-23T08:10:26;10.63;;;6.37;;
6195;SDS011;3131;42.630;23.382;2022-07-23T08:12:55;11.23;;;6.53;;
6195;SDS011;3131;42.630;23.382;2022-07-23T08:15:23;11.43;;;5.93;;
6195;SDS011;3131;42.630;23.382;2022-07-23T08:17:51;11.47;;;6.67;;
6195;SDS011;3131;42.630;23.382;2022-07-23T08:20:20;21.23;;;7.30;;
6195;SDS011;3131;42.630;23.382;2022-07-23T08:22:49;15.50;;;6.33;;
6195;SDS011;3131;42.630;23.382;2022-07-23T08:25:19;9.83;;;6.70;;
6195;SDS011;3131;42.630;23.382;2022-07-23T08:27:46;12.73;;;6.63;;
6195;SDS011;3131;42.630;23.382;2022-07-23T08:30:15;9.53;;;6.33;;
6195;SDS011;3131;42.630;23.382;2022-07-23T08:32:49;13.13;;;7.20;;
6195;SDS011;3131;42.630;23.382;2022-07-23T08:35:17;18.87;;;7.77;;
6195;SDS011;3131;42.630;23.382;2022-07-23T08:37:45;17.73;;;7.00;;
6195;SDS011;3131;42.630;23.382;2022-07-23T08:40:12;12.10;;;6.73;;
6195;SDS011;3131;42.630;23.382;2022-07-23T08:42:40;10.77;;;6.03;;
6195;SDS011;3131;42.630;23.382;2022-07-23T08:45:09;15.20;;;6.67;;
6195;SDS011;3131;42.630;23.382;2022-07-23T08:47:38;13.43;;;6.77;;
6195;SDS011;3131;42.630;23.382;2022-07-23T08:50:07;10.93;;;6.17;;
6195;SDS011;3131;42.630;23.382;2022-07-23T08:52:35;13.33;;;6.40;;
6195;SDS011;3131;42.630;23.382;2022-07-23T08:55:03;16.27;;;6.87;;
6195;SDS011;3131;42.630;23.382;2022-07-23T08:57:31;16.83;;;6.53;;
6195;SDS011;3131;42.630;23.382;2022-07-23T08:59:59;16.83;;;8.03;;
6195;SDS011;3131;42.630;23.382;2022-07-23T09:02:26;12.63;;;6.97;;
6195;SDS011;3131;42.630;23.382;2022-07-23T09:04:54;17.87;;;9.73;;
6195;SDS011;3131;42.630;23.382;2022-07-23T09:07:21;14.50;;;7.17;;
6195;SDS011;3131;42.630;23.382;2022-07-23T09:09:51;15.80;;;7.67;;
6195;SDS011;3131;42.630;23.382;2022-07-23T09:12:20;20.50;;;7.23;;
6195;SDS011;3131;42.630;23.382;2022-07-23T09:14:47;11.13;;;5.80;;
6195;SDS011;3131;42.630;23.382;2022-07-23T09:36:09;9.03;;;6.23;;
6195;SDS011;3131;42.630;23.382;2022-07-23T09:38:37;17.35;;;6.10;;
6195;SDS011;3131;42.630;23.382;2022-07-23T09:41:06;10.20;;;6.20;;
6195;SDS011;3131;42.630;23.382;2022-07-23T09:43:34;24.47;;;7.08;;
6195;SDS011;3131;42.630;23.382;2022-07-23T09:46:18;15.28;;;6.17;;
6195;SDS011;3131;42.630;23.382;2022-07-23T09:48:46;15.03;;;6.12;;
6195;SDS011;3131;42.630;23.382;2022-07-23T09:56:35;10.65;;;5.70;;
6195;SDS011;3131;42.630;23.382;2022-07-23T09:59:04;9.75;;;6.33;;
6195;SDS011;3131;42.630;23.382;2022-07-23T10:01:33;12.78;;;6.35;;
6195;SDS011;3131;42.630;23.382;2022-07-23T10:04:01;20.88;;;7.30;;
6195;SDS011;3131;42.630;23.382;2022-07-23T10:06:28;18.95;;;6.47;;
6195;SDS011;3131;42.630;23.382;2022-07-23T10:08:57;14.47;;;5.72;;
6195;SDS011;3131;42.630;23.382;2022-07-23T10:11:25;12.45;;;5.58;;
6195;SDS011;3131;42.630;23.382;2022-07-23T10:13:54;12.33;;;5.10;;
6195;SDS011;3131;42.630;23.382;2022-07-23T10:16:23;11.48;;;6.20;;
6195;SDS011;3131;42.630;23.382;2022-07-23T10:18:51;11.75;;;5.65;;
6195;SDS011;3131;42.630;23.382;2022-07-23T10:21:20;16.25;;;6.45;;
6195;SDS011;3131;42.630;23.382;2022-07-23T10:24:01;11.93;;;6.40;;
6195;SDS011;3131;42.630;23.382;2022-07-23T10:26:17;12.23;;;5.42;;
6195;SDS011;3131;42.630;23.382;2022-07-23T10:28:56;7.20;;;5.25;;
6195;SDS011;3131;42.630;23.382;2022-07-23T10:31:31;11.30;;;5.60;;
6195;SDS011;3131;42.630;23.382;2022-07-23T10:34:02;10.43;;;5.20;;
6195;SDS011;3131;42.630;23.382;2022-07-23T10:36:29;15.08;;;4.95;;
6195;SDS011;3131;42.630;23.382;2022-07-23T10:38:58;12.90;;;5.20;;
6195;SDS011;3131;42.630;23.382;2022-07-23T10:41:33;10.38;;;4.75;;
6195;SDS011;3131;42.630;23.382;2022-07-23T10:44:06;7.10;;;4.90;;
6195;SDS011;3131;42.630;23.382;2022-07-23T10:46:34;11.15;;;5.37;;
6195;SDS011;3131;42.630;23.382;2022-07-23T10:49:21;14.98;;;5.92;;
6195;SDS011;3131;42.630;23.382;2022-07-23T10:54:35;11.83;;;5.25;;
6195;SDS011;3131;42.630;23.382;2022-07-23T10:57:06;13.80;;;5.28;;
6195;SDS011;3131;42.630;23.382;2022-07-23T11:02:20;12.15;;;4.85;;
6195;SDS011;3131;42.630;23.382;2022-07-23T11:04:49;13.80;;;4.75;;
6195;SDS011;3131;42.630;23.382;2022-07-23T11:07:17;13.90;;;4.78;;
6195;SDS011;3131;42.630;23.382;2022-07-23T11:09:45;14.28;;;5.10;;
6195;SDS011;3131;42.630;23.382;2022-07-23T11:12:32;15.40;;;4.47;;
6195;SDS011;3131;42.630;23.382;2022-07-23T11:15:02;10.30;;;4.95;;
6195;SDS011;3131;42.630;23.382;2022-07-23T11:17:30;11.65;;;4.40;;
6195;SDS011;3131;42.630;23.382;2022-07-23T11:20:17;11.85;;;4.67;;
6195;SDS011;3131;42.630;23.382;2022-07-23T11:22:48;11.50;;;5.33;;
6195;SDS011;3131;42.630;23.382;2022-07-23T11:25:29;15.63;;;4.53;;
6195;SDS011;3131;42.630;23.382;2022-07-23T11:28:07;8.10;;;4.65;;
6195;SDS011;3131;42.630;23.382;2022-07-23T11:30:39;10.10;;;4.50;;
6195;SDS011;3131;42.630;23.382;2022-07-23T11:33:16;14.70;;;4.83;;
6195;SDS011;3131;42.630;23.382;2022-07-23T11:35:44;12.90;;;5.03;;
6195;SDS011;3131;42.630;23.382;2022-07-23T11:38:14;9.15;;;4.05;;
6195;SDS011;3131;42.630;23.382;2022-07-23T11:40:43;19.67;;;4.55;;
6195;SDS011;3131;42.630;23.382;2022-07-23T11:43:11;12.53;;;4.97;;
6195;SDS011;3131;42.630;23.382;2022-07-23T11:45:40;10.82;;;4.87;;
6195;SDS011;3131;42.630;23.382;2022-07-23T11:48:08;14.95;;;5.70;;
6195;SDS011;3131;42.630;23.382;2022-07-23T11:50:37;15.53;;;4.55;;
6195;SDS011;3131;42.630;23.382;2022-07-23T11:53:04;13.15;;;5.00;;
6195;SDS011;3131;42.630;23.382;2022-07-23T11:55:32;12.80;;;4.65;;
6195;SDS011;3131;42.630;23.382;2022-07-23T11:58:00;8.70;;;3.98;;
6195;SDS011;3131;42.630;23.382;2022-07-23T12:00:28;13.22;;;4.75;;
6195;SDS011;3131;42.630;23.382;2022-07-23T12:02:56;22.45;;;4.80;;
6195;SDS011;3131;42.630;23.382;2022-07-23T12:05:29;13.28;;;5.55;;
6195;SDS011;3131;42.630;23.382;2022-07-23T12:07:57;20.97;;;4.97;;
6195;SDS011;3131;42.630;23.382;2022-07-23T12:10:26;13.38;;;4.40;;
6195;SDS011;3131;42.630;23.382;2022-07-23T12:12:55;12.98;;;4.62;;
6195;SDS011;3131;42.630;23.382;2022-07-23T12:15:24;15.70;;;4.87;;
6195;SDS011;3131;42.630;23.382;2022-07-23T12:17:52;22.42;;;5.45;;
6195;SDS011;3131;42.630;23.382;2022-07-23T12:20:24;14.90;;;4.83;;
6195;SDS011;3131;42.630;23.382;2022-07-23T12:22:52;14.03;;;4.97;;
6195;SDS011;3131;42.630;23.382;2022-07-23T12:25:22;17.35;;;5.22;;
6195;SDS011;3131;42.630;23.382;2022-07-23T12:27:58;21.97;;;5.40;;
6195;SDS011;3131;42.630;23.382;2022-07-23T12:30:27;9.75;;;4.67;;
6195;SDS011;3131;42.630;23.382;2022-07-23T12:32:55;15.00;;;5.28;;
6195;SDS011;3131;42.630;23.382;2022-07-23T12:35:29;13.55;;;4.37;;
6195;SDS011;3131;42.630;23.382;2022-07-23T12:37:52;13.98;;;4.87;;
6195;SDS011;3131;42.630;23.382;2022-07-23T12:40:23;13.30;;;4.87;;
6195;SDS011;3131;42.630;23.382;2022-07-23T12:42:52;16.02;;;4.60;;
6195;SDS011;3131;42.630;23.382;2022-07-23T12:45:20;18.73;;;4.87;;
6195;SDS011;3131;42.630;23.382;2022-07-23T12:47:52;15.78;;;5.15;;
6195;SDS011;3131;42.630;23.382;2022-07-23T12:50:34;14.05;;;4.75;;
6195;SDS011;3131;42.630;23.382;2022-07-23T12:53:06;15.10;;;4.72;;
6195;SDS011;3131;42.630;23.382;2022-07-23T12:55:34;12.45;;;4.37;;
6195;SDS011;3131;42.630;23.382;2022-07-23T12:58:05;15.70;;;4.50;;
6195;SDS011;3131;42.630;23.382;2022-07-23T13:00:34;16.90;;;5.30;;
6195;SDS011;3131;42.630;23.382;2022-07-23T13:03:03;19.52;;;5.78;;
6195;SDS011;3131;42.630;23.382;2022-07-23T13:05:31;12.65;;;4.25;;
6195;SDS011;3131;42.630;23.382;2022-07-23T13:07:59;19.75;;;4.45;;
6195;SDS011;3131;42.630;23.382;2022-07-23T13:10:32;16.40;;;5.55;;
6195;SDS011;3131;42.630;23.382;2022-07-23T13:13:00;15.45;;;5.33;;
6195;SDS011;3131;42.630;23.382;2022-07-23T13:15:28;9.90;;;4.20;;
6195;SDS011;3131;42.630;23.382;2022-07-23T13:17:55;13.93;;;4.53;;
6195;SDS011;3131;42.630;23.382;2022-07-23T13:20:23;15.28;;;4.17;;
6195;SDS011;3131;42.630;23.382;2022-07-23T13:22:51;14.28;;;3.98;;
6195;SDS011;3131;42.630;23.382;2022-07-23T13:25:19;17.07;;;4.10;;
6195;SDS011;3131;42.630;23.382;2022-07-23T13:27:47;10.88;;;3.95;;
6195;SDS011;3131;42.630;23.382;2022-07-23T13:30:14;12.95;;;4.15;;
6195;SDS011;3131;42.630;23.382;2022-07-23T13:32:42;18.55;;;4.62;;
6195;SDS011;3131;42.630;23.382;2022-07-23T13:35:10;13.30;;;4.08;;
6195;SDS011;3131;42.630;23.382;2022-07-23T13:37:38;20.10;;;4.80;;
6195;SDS011;3131;42.630;23.382;2022-07-23T13:40:07;18.27;;;5.10;;
6195;SDS011;3131;42.630;23.382;2022-07-23T13:42:35;16.23;;;4.28;;
6195;SDS011;3131;42.630;23.382;2022-07-23T13:45:04;18.12;;;4.78;;
6195;SDS011;3131;42.630;23.382;2022-07-23T13:47:32;15.78;;;4.58;;
6195;SDS011;3131;42.630;23.382;2022-07-23T13:50:00;15.93;;;4.83;;
6195;SDS011;3131;42.630;23.382;2022-07-23T13:52:28;14.45;;;5.78;;
6195;SDS011;3131;42.630;23.382;2022-07-23T13:54:56;19.57;;;4.78;;
6195;SDS011;3131;42.630;23.382;2022-07-23T13:57:24;13.85;;;5.30;;
6195;SDS011;3131;42.630;23.382;2022-07-23T13:59:51;14.05;;;4.90;;
6195;SDS011;3131;42.630;23.382;2022-07-23T14:02:19;13.03;;;4.65;;
6195;SDS011;3131;42.630;23.382;2022-07-23T14:04:47;17.32;;;4.85;;
6195;SDS011;3131;42.630;23.382;2022-07-23T14:07:15;14.28;;;4.80;;
6195;SDS011;3131;42.630;23.382;2022-07-23T14:09:43;16.37;;;4.47;;
6195;SDS011;3131;42.630;23.382;2022-07-23T14:12:10;19.00;;;6.03;;
6195;SDS011;3131;42.630;23.382;2022-07-23T14:14:38;13.83;;;5.05;;
6195;SDS011;3131;42.630;23.382;2022-07-23T14:17:06;24.90;;;5.92;;
6195;SDS011;3131;42.630;23.382;2022-07-23T14:19:34;16.27;;;5.03;;
6195;SDS011;3131;42.630;23.382;2022-07-23T14:22:02;15.15;;;5.35;;
6195;SDS011;3131;42.630;23.382;2022-07-23T14:24:29;16.23;;;4.65;;
6195;SDS011;3131;42.630;23.382;2022-07-23T14:26:57;17.70;;;5.03;;
6195;SDS011;3131;42.630;23.382;2022-07-23T14:29:26;19.05;;;5.00;;
6195;SDS011;3131;42.630;23.382;2022-07-23T14:31:53;15.68;;;4.67;;
6195;SDS011;3131;42.630;23.382;2022-07-23T14:34:21;12.65;;;4.90;;
6195;SDS011;3131;42.630;23.382;2022-07-23T14:36:49;14.10;;;5.20;;
6195;SDS011;3131;42.630;23.382;2022-07-23T14:39:16;18.17;;;5.12;;
6195;SDS011;3131;42.630;23.382;2022-07-23T14:41:43;13.25;;;4.75;;
6195;SDS011;3131;42.630;23.382;2022-07-23T14:44:11;14.05;;;5.45;;
6195;SDS011;3131;42.630;23.382;2022-07-23T14:46:39;13.98;;;5.12;;
6195;SDS011;3131;42.630;23.382;2022-07-23T14:49:06;12.53;;;5.08;;
6195;SDS011;3131;42.630;23.382;2022-07-23T14:51:34;20.45;;;5.33;;
6195;SDS011;3131;42.630;23.382;2022-07-23T14:54:02;14.95;;;4.78;;
6195;SDS011;3131;42.630;23.382;2022-07-23T14:56:30;16.25;;;4.55;;
6195;SDS011;3131;42.630;23.382;2022-07-23T14:58:57;20.02;;;5.45;;
6195;SDS011;3131;42.630;23.382;2022-07-23T15:01:25;14.18;;;5.35;;
6195;SDS011;3131;42.630;23.382;2022-07-23T15:03:52;15.25;;;5.47;;
6195;SDS011;3131;42.630;23.382;2022-07-23T15:06:20;11.00;;;5.05;;
6195;SDS011;3131;42.630;23.382;2022-07-23T15:08:47;11.05;;;4.47;;
6195;SDS011;3131;42.630;23.382;2022-07-23T15:11:15;13.10;;;5.10;;
6195;SDS011;3131;42.630;23.382;2022-07-23T15:13:42;10.72;;;5.03;;
6195;SDS011;3131;42.630;23.382;2022-07-23T15:16:10;18.12;;;5.53;;
6195;SDS011;3131;42.630;23.382;2022-07-23T15:18:37;13.72;;;5.53;;
6195;SDS011;3131;42.630;23.382;2022-07-23T15:21:05;7.37;;;5.10;;
6195;SDS011;3131;42.630;23.382;2022-07-23T15:23:33;14.25;;;5.28;;
6195;SDS011;3131;42.630;23.382;2022-07-23T15:26:01;10.10;;;4.40;;
6195;SDS011;3131;42.630;23.382;2022-07-23T15:28:28;8.15;;;5.87;;
6195;SDS011;3131;42.630;23.382;2022-07-23T15:30:56;10.80;;;4.60;;
6195;SDS011;3131;42.630;23.382;2022-07-23T15:33:23;17.90;;;9.90;;
6195;SDS011;3131;42.630;23.382;2022-07-23T15:35:51;21.02;;;9.93;;
6195;SDS011;3131;42.630;23.382;2022-07-23T15:38:21;11.12;;;5.60;;
6195;SDS011;3131;42.630;23.382;2022-07-23T15:40:49;12.30;;;5.40;;
6195;SDS011;3131;42.630;23.382;2022-07-23T15:43:16;16.93;;;5.37;;